createdAt,value
2018-02-10T00:01:41.136Z,92.10
2018-02-10T00:04:08.672Z,92.10
2018-02-10T00:06:36.156Z,92.10
2018-02-10T00:09:03.665Z,92.10
2018-02-10T00:11:31.207Z,92.10
2018-02-10T00:13:58.733Z,92.50
2018-02-10T00:16:26.227Z,92.20
2018-02-10T00:18:54.545Z,92.20
2018-02-10T00:21:22.091Z,92.20
2018-02-10T00:23:49.607Z,92.20
2018-02-10T00:26:17.162Z,92.20
2018-02-10T00:28:44.687Z,92.20
2018-02-10T00:31:12.224Z,92.10
2018-02-10T00:33:40.511Z,92.20
2018-02-10T00:36:08.009Z,92.20
2018-02-10T00:38:35.512Z,92.20
2018-02-10T00:41:03.826Z,92.20
2018-02-10T00:43:31.323Z,92.20
2018-02-10T00:45:58.890Z,92.30
2018-02-10T00:48:26.405Z,92.30
2018-02-10T00:50:53.938Z,92.30
2018-02-10T00:53:21.449Z,92.40
2018-02-10T00:55:48.972Z,92.40
2018-02-10T00:58:16.479Z,92.50
2018-02-10T01:00:44.005Z,92.50
2018-02-10T01:03:11.516Z,92.50
2018-02-10T01:05:39.131Z,92.50
2018-02-10T01:08:06.605Z,92.50
2018-02-10T01:10:34.437Z,92.60
2018-02-10T01:13:01.954Z,92.60
2018-02-10T01:15:29.472Z,92.70
2018-02-10T01:17:56.999Z,92.70
2018-02-10T01:20:25.300Z,92.80
2018-02-10T01:22:52.791Z,92.80
2018-02-10T01:25:20.314Z,92.90
2018-02-10T01:27:47.876Z,92.90
2018-02-10T01:30:15.368Z,93.20
2018-02-10T01:32:42.880Z,93.30
2018-02-10T01:35:10.394Z,93.50
2018-02-10T01:37:37.915Z,93.60
2018-02-10T01:40:05.525Z,93.80
2018-02-10T01:42:33.022Z,93.90
2018-02-10T01:45:00.511Z,93.80
2018-02-10T01:47:28.030Z,93.90
2018-02-10T01:50:08.183Z,94.10
2018-02-10T01:52:35.689Z,94.10
2018-02-10T01:55:03.185Z,94.10
2018-02-10T01:57:30.725Z,94.30
2018-02-10T01:59:58.235Z,94.70
2018-02-10T02:02:25.836Z,94.40
2018-02-10T02:04:53.373Z,94.30
2018-02-10T02:07:20.915Z,94.40
2018-02-10T02:09:49.208Z,94.40
2018-02-10T02:12:16.723Z,94.40
2018-02-10T02:14:44.214Z,94.40
2018-02-10T02:17:12.494Z,94.40
2018-02-10T02:19:40.020Z,94.30
2018-02-10T02:22:07.527Z,94.40
2018-02-10T02:24:35.060Z,94.40
2018-02-10T02:27:02.565Z,94.40
2018-02-10T02:29:30.085Z,94.30
2018-02-10T02:31:57.597Z,94.30
2018-02-10T02:34:25.113Z,94.30
2018-02-10T02:36:53.388Z,94.30
2018-02-10T02:39:20.894Z,94.30
2018-02-10T02:41:48.409Z,94.50
2018-02-10T02:44:16.682Z,94.10
2018-02-10T02:46:44.227Z,94.00
2018-02-10T02:49:11.763Z,94.00
2018-02-10T02:51:39.296Z,93.80
2018-02-10T02:54:06.841Z,93.80
2018-02-10T02:56:34.415Z,93.70
2018-02-10T02:59:01.925Z,93.80
2018-02-10T03:01:29.455Z,93.70
2018-02-10T03:03:56.988Z,93.70
2018-02-10T03:06:24.518Z,93.70
2018-02-10T03:08:52.029Z,93.70
2018-02-10T03:11:19.552Z,93.60
2018-02-10T03:13:47.079Z,93.50
2018-02-10T03:16:14.587Z,93.50
2018-02-10T03:18:42.108Z,93.40
2018-02-10T03:21:09.613Z,93.20
2018-02-10T03:23:37.129Z,93.20
2018-02-10T03:26:04.640Z,93.20
2018-02-10T03:28:32.170Z,93.10
2018-02-10T03:31:00.364Z,93.00
2018-02-10T03:33:28.656Z,93.00
2018-02-10T03:35:56.168Z,93.00
2018-02-10T03:38:23.698Z,92.90
2018-02-10T03:40:51.212Z,93.00
2018-02-10T03:43:19.473Z,92.90
2018-02-10T03:45:46.974Z,92.90
2018-02-10T03:48:14.488Z,92.70
2018-02-10T03:50:42.003Z,93.00
2018-02-10T03:53:09.521Z,93.10
2018-02-10T03:55:37.042Z,93.10
2018-02-10T03:58:04.537Z,93.20
2018-02-10T04:00:32.794Z,93.30
2018-02-10T04:03:00.322Z,93.20
2018-02-10T04:05:27.809Z,93.30
2018-02-10T04:07:55.295Z,93.40
2018-02-10T04:10:23.567Z,93.40
2018-02-10T04:12:51.056Z,93.40
2018-02-10T04:15:18.588Z,93.50
2018-02-10T04:17:46.116Z,93.50
2018-02-10T04:20:13.624Z,93.50
2018-02-10T04:22:41.172Z,93.60
2018-02-10T04:25:08.708Z,93.70
2018-02-10T04:27:36.216Z,93.70
2018-02-10T04:30:03.737Z,93.70
2018-02-10T04:32:31.305Z,93.70
2018-02-10T04:34:58.807Z,93.80
2018-02-10T04:37:26.286Z,93.80
2018-02-10T04:39:53.783Z,93.90
2018-02-10T04:42:21.268Z,94.00
2018-02-10T04:44:49.540Z,94.30
2018-02-10T04:47:17.947Z,94.00
2018-02-10T04:49:45.462Z,94.10
2018-02-10T04:52:13.007Z,94.40
2018-02-10T04:54:40.493Z,94.40
2018-02-10T04:57:08.763Z,94.40
2018-02-10T04:59:37.043Z,94.50
2018-02-10T05:02:04.572Z,94.40
2018-02-10T05:04:32.139Z,94.50
2018-02-10T05:06:59.663Z,94.50
2018-02-10T05:09:27.232Z,94.60
2018-02-10T05:11:54.753Z,94.70
2018-02-10T05:14:23.020Z,95.10
2018-02-10T05:16:50.540Z,94.70
2018-02-10T05:19:18.032Z,94.80
2018-02-10T05:21:45.525Z,94.90
2018-02-10T05:24:13.794Z,95.20
2018-02-10T05:26:41.274Z,95.20
2018-02-10T05:29:08.770Z,95.30
2018-02-10T05:31:36.310Z,95.30
2018-02-10T05:34:03.893Z,95.50
2018-02-10T05:36:31.424Z,96.20
2018-02-10T05:38:58.928Z,96.00
2018-02-10T05:41:26.436Z,96.00
2018-02-10T05:43:53.927Z,96.00
2018-02-10T05:46:21.439Z,96.00
2018-02-10T05:48:48.946Z,96.00
2018-02-10T05:51:16.463Z,96.10
2018-02-10T05:53:43.954Z,96.20
2018-02-10T05:56:11.454Z,96.20
2018-02-10T05:58:38.952Z,96.10
2018-02-10T06:01:07.231Z,96.30
2018-02-10T06:03:34.724Z,96.30
2018-02-10T06:06:02.219Z,96.60
2018-02-10T06:08:29.743Z,97.00
2018-02-10T06:10:57.259Z,97.10
2018-02-10T06:13:24.804Z,97.10
2018-02-10T06:15:52.327Z,97.10
2018-02-10T06:18:19.841Z,97.10
2018-02-10T06:20:47.355Z,97.20
2018-02-10T06:23:14.864Z,97.20
2018-02-10T06:25:42.375Z,97.10
2018-02-10T06:28:09.862Z,97.10
2018-02-10T06:30:37.361Z,96.90
2018-02-10T06:33:04.887Z,97.00
2018-02-10T06:35:33.154Z,97.10
2018-02-10T06:38:00.649Z,97.10
2018-02-10T06:40:28.170Z,97.10
2018-02-10T06:42:55.701Z,97.10
2018-02-10T06:45:23.225Z,97.20
2018-02-10T06:47:50.806Z,97.10
2018-02-10T06:50:18.307Z,97.10
2018-02-10T06:52:45.790Z,97.10
2018-02-10T06:55:14.072Z,97.10
2018-02-10T06:57:41.565Z,97.10
2018-02-10T07:00:09.071Z,97.30
2018-02-10T07:02:37.319Z,97.70
2018-02-10T07:05:04.829Z,97.70
2018-02-10T07:07:32.341Z,97.40
2018-02-10T07:09:59.830Z,97.20
2018-02-10T07:12:28.101Z,96.90
2018-02-10T07:14:55.593Z,96.90
2018-02-10T07:17:23.091Z,97.40
2018-02-10T07:19:50.638Z,97.10
2018-02-10T07:22:18.142Z,97.10
2018-02-10T07:24:45.911Z,97.20
2018-02-10T07:27:13.416Z,97.00
2018-02-10T07:29:40.932Z,96.80
2018-02-10T07:32:09.184Z,96.60
2018-02-10T07:34:36.711Z,96.60
2018-02-10T07:37:04.226Z,96.60
2018-02-10T07:39:31.717Z,96.60
2018-02-10T07:41:59.237Z,96.50
2018-02-10T07:44:26.739Z,96.50
2018-02-10T07:46:54.300Z,96.90
2018-02-10T07:49:21.841Z,96.70
2018-02-10T07:51:49.576Z,96.70
2018-02-10T07:54:17.078Z,96.80
2018-02-10T07:56:44.596Z,96.90
2018-02-10T07:59:12.087Z,96.90
2018-02-10T08:01:40.351Z,97.00
2018-02-10T08:04:07.849Z,97.00
2018-02-10T08:06:35.340Z,96.90
2018-02-10T08:09:02.846Z,96.80
2018-02-10T08:11:30.336Z,96.90
2018-02-10T08:13:57.858Z,96.90
2018-02-10T08:16:25.374Z,96.90
2018-02-10T08:18:52.865Z,96.70
2018-02-10T08:21:20.364Z,96.70
2018-02-10T08:23:47.890Z,96.70
2018-02-10T08:26:16.172Z,96.90
2018-02-10T08:28:44.049Z,96.90
2018-02-10T08:31:11.670Z,96.90
2018-02-10T08:33:39.236Z,97.00
2018-02-10T08:36:06.791Z,97.00
2018-02-10T08:38:34.309Z,97.00
2018-02-10T08:41:01.907Z,96.90
2018-02-10T08:43:29.434Z,97.00
2018-02-10T08:45:56.950Z,97.00
2018-02-10T08:48:24.490Z,97.10
2018-02-10T08:50:52.146Z,97.50
2018-02-10T08:53:19.665Z,99.90
2018-02-10T08:55:47.282Z,98.30
2018-02-10T08:58:14.871Z,97.10
2018-02-10T09:00:42.366Z,97.40
2018-02-10T09:03:09.894Z,97.90
2018-02-10T09:05:37.391Z,97.80
2018-02-10T09:08:04.952Z,98.20
2018-02-10T09:10:32.460Z,98.30
2018-02-10T09:13:00.743Z,98.50
2018-02-10T09:15:29.021Z,98.50
2018-02-10T09:17:56.520Z,98.50
2018-02-10T09:20:24.095Z,98.60
2018-02-10T09:22:52.349Z,98.60
2018-02-10T09:25:19.852Z,98.60
2018-02-10T09:27:47.360Z,98.40
2018-02-10T09:30:14.964Z,98.50
2018-02-10T09:32:42.472Z,98.60
2018-02-10T09:35:09.991Z,99.10
2018-02-10T09:37:37.513Z,98.90
2018-02-10T09:40:05.023Z,98.80
2018-02-10T09:42:32.517Z,98.40
2018-02-10T09:45:00.041Z,98.70
2018-02-10T09:47:27.552Z,98.70
2018-02-10T09:49:55.060Z,98.20
2018-02-10T09:52:22.552Z,98.00
2018-02-10T09:54:50.851Z,93.40
2018-02-10T09:57:18.339Z,93.30
2018-02-10T09:59:45.827Z,92.30
2018-02-10T10:02:14.111Z,91.10
2018-02-10T10:04:41.618Z,91.10
2018-02-10T10:07:09.124Z,91.30
2018-02-10T10:09:36.642Z,92.00
2018-02-10T10:12:04.184Z,93.50
2018-02-10T10:14:31.688Z,94.20
2018-02-10T10:16:59.193Z,95.20
2018-02-10T10:19:26.706Z,95.80
2018-02-10T10:21:54.197Z,95.90
2018-02-10T10:24:22.473Z,96.30
2018-02-10T10:26:50.014Z,96.30
2018-02-10T10:29:17.507Z,94.80
2018-02-10T10:31:45.002Z,93.10
2018-02-10T10:34:13.041Z,91.80
2018-02-10T10:36:40.541Z,91.90
2018-02-10T10:39:08.089Z,91.70
2018-02-10T10:41:35.653Z,91.30
2018-02-10T10:44:03.138Z,92.80
2018-02-10T10:46:30.630Z,94.10
2018-02-10T10:48:58.896Z,95.20
2018-02-10T10:51:26.392Z,95.20
2018-02-10T10:53:53.915Z,95.40
2018-02-10T10:56:22.173Z,95.90
2018-02-10T10:58:49.685Z,95.90
2018-02-10T11:01:17.207Z,96.20
2018-02-10T11:03:45.468Z,96.30
2018-02-10T11:06:12.966Z,96.30
2018-02-10T11:08:40.494Z,96.40
2018-02-10T11:11:08.006Z,96.40
2018-02-10T11:13:35.548Z,96.30
2018-02-10T11:16:03.039Z,96.30
2018-02-10T11:18:30.545Z,95.90
2018-02-10T11:20:58.058Z,95.80
2018-02-10T11:23:25.545Z,95.40
2018-02-10T11:25:53.050Z,95.00
2018-02-10T11:28:20.555Z,94.40
2018-02-10T11:30:48.046Z,94.20
2018-02-10T11:33:16.328Z,93.30
2018-02-10T11:35:44.583Z,92.90
2018-02-10T11:38:12.071Z,92.80
2018-02-10T11:40:39.673Z,93.10
2018-02-10T11:43:07.175Z,92.30
2018-02-10T11:45:34.677Z,91.80
2018-02-10T11:48:02.173Z,91.60
2018-02-10T11:50:29.680Z,91.80
2018-02-10T11:52:57.178Z,91.60
2018-02-10T11:55:24.675Z,91.40
2018-02-10T11:57:52.177Z,91.60
2018-02-10T12:00:19.683Z,91.80
2018-02-10T12:02:47.250Z,91.60
2018-02-10T12:05:14.722Z,91.60
2018-02-10T12:07:42.212Z,91.20
2018-02-10T12:10:09.719Z,91.40
2018-02-10T12:12:37.222Z,91.40
2018-02-10T12:15:04.759Z,90.30
2018-02-10T12:17:33.004Z,90.40
2018-02-10T12:20:00.543Z,90.40
2018-02-10T12:22:28.069Z,89.80
2018-02-10T12:24:56.319Z,87.10
2018-02-10T12:27:23.839Z,87.10
2018-02-10T12:29:51.359Z,87.10
2018-02-10T12:32:18.839Z,85.40
2018-02-10T12:34:46.380Z,85.60
2018-02-10T12:37:13.875Z,86.20
2018-02-10T12:39:41.388Z,86.30
2018-02-10T12:42:09.667Z,84.00
2018-02-10T12:44:37.151Z,83.90
2018-02-10T12:47:04.661Z,84.40
2018-02-10T12:49:32.158Z,83.30
2018-02-10T12:52:00.436Z,83.30
2018-02-10T12:54:27.921Z,83.30
2018-02-10T12:56:55.417Z,82.80
2018-02-10T12:59:22.924Z,83.60
2018-02-10T13:01:51.180Z,82.00
2018-02-10T13:04:18.674Z,82.00
2018-02-10T13:06:46.179Z,81.60
2018-02-10T13:09:13.681Z,81.50
2018-02-10T13:11:41.194Z,80.60
2018-02-10T13:14:08.679Z,79.50
2018-02-10T13:16:36.978Z,79.40
2018-02-10T13:19:04.476Z,79.40
2018-02-10T13:21:31.966Z,79.70
2018-02-10T13:23:59.480Z,78.30
2018-02-10T13:26:26.984Z,78.80
2018-02-10T13:28:54.477Z,76.80
2018-02-10T13:31:21.983Z,75.20
2018-02-10T13:33:49.481Z,74.20
2018-02-10T13:36:17.738Z,73.90
2018-02-10T13:38:45.260Z,73.90
2018-02-10T13:41:12.769Z,73.50
2018-02-10T13:43:41.024Z,74.10
2018-02-10T13:46:08.507Z,74.70
2018-02-10T13:48:39.965Z,74.90
2018-02-10T13:51:07.452Z,73.60
2018-02-10T13:53:34.964Z,73.20
2018-02-10T13:56:02.477Z,72.20
2018-02-10T13:58:29.966Z,72.20
2018-02-10T14:00:57.447Z,72.00
2018-02-10T14:03:24.942Z,71.40
2018-02-10T14:05:52.451Z,71.70
2018-02-10T14:08:19.930Z,68.80
2018-02-10T14:10:47.437Z,67.70
2018-02-10T14:13:14.960Z,68.90
2018-02-10T14:15:43.230Z,67.30
2018-02-10T14:18:10.766Z,67.20
2018-02-10T14:20:38.268Z,65.20
2018-02-10T14:23:06.524Z,64.00
2018-02-10T14:25:34.009Z,64.00
2018-02-10T14:28:01.638Z,61.40
2018-02-10T14:30:29.127Z,61.70
2018-02-10T14:32:56.628Z,61.30
2018-02-10T14:35:24.168Z,60.70
2018-02-10T14:37:51.694Z,60.60
2018-02-10T14:40:20.025Z,59.40
2018-02-10T14:42:47.519Z,59.40
2018-02-10T14:45:14.996Z,59.40
2018-02-10T14:47:43.273Z,59.90
2018-02-10T14:50:10.928Z,59.80
2018-02-10T14:52:38.528Z,60.40
2018-02-10T14:55:06.366Z,59.20
2018-02-10T14:57:34.846Z,59.40
2018-02-10T15:00:03.304Z,59.70
2018-02-10T15:02:31.391Z,59.60
2018-02-10T15:04:59.046Z,61.40
2018-02-10T15:07:26.731Z,61.10
2018-02-10T15:09:55.276Z,59.60
2018-02-10T15:12:23.193Z,59.60
2018-02-10T15:14:51.675Z,59.60
2018-02-10T15:17:19.395Z,59.60
2018-02-10T15:19:46.891Z,60.90
2018-02-10T15:22:15.267Z,61.70
2018-02-10T15:24:43.112Z,61.70
2018-02-10T15:27:10.877Z,61.10
2018-02-10T15:29:50.336Z,59.90
2018-02-10T15:32:29.687Z,58.80
2018-02-10T15:34:59.531Z,59.60
2018-02-10T15:37:27.941Z,58.90
2018-02-10T15:39:55.817Z,61.30
2018-02-10T15:42:24.070Z,60.40
2018-02-10T15:44:51.800Z,60.00
2018-02-10T15:47:20.207Z,58.80
2018-02-10T15:49:49.731Z,58.80
2018-02-10T15:52:17.403Z,58.80
2018-02-10T15:54:45.658Z,59.70
2018-02-10T15:57:13.309Z,60.00
2018-02-10T15:59:40.993Z,60.40
2018-02-10T16:02:08.801Z,60.70
2018-02-10T16:04:36.302Z,60.30
2018-02-10T16:07:03.815Z,60.50
2018-02-10T16:09:31.368Z,60.40
2018-02-10T16:11:59.137Z,60.60
2018-02-10T16:14:26.957Z,59.90
2018-02-10T16:16:54.794Z,61.10
2018-02-10T16:19:22.692Z,61.00
2018-02-10T16:21:50.282Z,61.50
2018-02-10T16:24:18.106Z,60.70
2018-02-10T16:26:45.808Z,61.60
2018-02-10T16:29:15.336Z,61.20
2018-02-10T16:31:42.958Z,61.60
2018-02-10T16:34:10.760Z,62.40
2018-02-10T16:36:38.578Z,63.50
2018-02-10T16:39:07.288Z,64.00
2018-02-10T16:41:35.361Z,64.00
2018-02-10T16:44:03.159Z,64.00
2018-02-10T16:46:30.959Z,64.10
2018-02-10T16:48:59.252Z,64.50
2018-02-10T16:54:18.161Z,64.30
2018-02-10T16:56:45.828Z,64.90
2018-02-10T16:59:13.545Z,66.00
2018-02-10T17:01:41.831Z,64.30
2018-02-10T17:04:11.406Z,64.40
2018-02-10T17:06:39.359Z,65.00
2018-02-10T17:09:07.094Z,64.30
2018-02-10T17:11:34.899Z,65.50
2018-02-10T17:14:02.675Z,64.80
2018-02-10T17:16:30.369Z,65.40
2018-02-10T17:18:58.327Z,65.60
2018-02-10T17:21:26.811Z,65.60
2018-02-10T17:23:54.408Z,65.50
2018-02-10T17:26:22.251Z,65.50
2018-02-10T17:28:50.096Z,65.80
2018-02-10T17:31:17.809Z,66.70
2018-02-10T17:33:45.509Z,67.00
2018-02-10T17:36:13.260Z,67.60
2018-02-10T17:38:41.015Z,67.80
2018-02-10T17:41:08.576Z,68.10
2018-02-10T17:43:36.651Z,68.40
2018-02-10T17:46:04.451Z,68.30
2018-02-10T17:48:32.293Z,68.30
2018-02-10T17:50:59.909Z,67.90
2018-02-10T17:53:28.211Z,67.20
2018-02-10T17:55:56.909Z,67.10
2018-02-10T17:58:24.582Z,67.10
2018-02-10T18:00:52.521Z,66.50
2018-02-10T18:03:20.102Z,66.50
2018-02-10T18:05:47.963Z,66.10
2018-02-10T18:08:15.482Z,65.90
2018-02-10T18:10:43.087Z,65.90
2018-02-10T18:13:10.941Z,65.20
2018-02-10T18:15:38.613Z,65.90
2018-02-10T18:18:06.351Z,65.10
2018-02-10T18:20:34.266Z,65.30
2018-02-10T18:23:02.045Z,65.40
2018-02-10T18:25:29.705Z,65.20
2018-02-10T18:27:57.599Z,65.50
2018-02-10T18:30:25.826Z,65.40
2018-02-10T18:32:53.523Z,64.50
2018-02-10T18:35:21.203Z,64.30
2018-02-10T18:37:49.154Z,64.90
2018-02-10T18:40:16.869Z,65.00
2018-02-10T18:42:45.476Z,64.40
2018-02-10T18:45:13.339Z,64.40
2018-02-10T18:47:41.324Z,64.30
2018-02-10T18:50:08.890Z,64.20
2018-02-10T18:52:36.594Z,64.90
2018-02-10T18:55:04.362Z,64.60
2018-02-10T18:57:31.931Z,64.90
2018-02-10T19:00:00.683Z,65.00
2018-02-10T19:02:28.420Z,65.00
2018-02-10T19:04:56.023Z,65.20
2018-02-10T19:07:23.725Z,65.10
2018-02-10T19:09:51.664Z,65.10
2018-02-10T19:12:19.356Z,65.50
2018-02-10T19:14:47.280Z,65.60
2018-02-10T19:17:14.897Z,65.40
2018-02-10T19:19:42.780Z,65.70
2018-02-10T19:22:10.487Z,66.20
2018-02-10T19:24:38.143Z,66.40
2018-02-10T19:27:05.761Z,66.30
2018-02-10T19:29:33.619Z,66.40
2018-02-10T19:32:01.614Z,66.30
2018-02-10T19:34:29.178Z,66.50
2018-02-10T19:36:56.950Z,66.60
2018-02-10T19:39:24.861Z,66.60
2018-02-10T19:41:52.527Z,66.90
2018-02-10T19:44:20.492Z,66.80
2018-02-10T19:46:48.196Z,67.40
2018-02-10T19:49:16.798Z,67.70
2018-02-10T19:51:44.641Z,67.70
2018-02-10T19:54:12.332Z,68.10
2018-02-10T19:56:40.202Z,68.40
2018-02-10T19:59:07.819Z,68.50
2018-02-10T20:01:35.409Z,68.80
2018-02-10T20:04:04.087Z,69.10
2018-02-10T20:06:31.871Z,69.20
2018-02-10T20:08:59.648Z,69.40
2018-02-10T20:11:27.615Z,69.50
2018-02-10T20:13:55.234Z,69.70
2018-02-10T20:16:22.912Z,69.60
2018-02-10T20:18:51.587Z,69.60
2018-02-10T20:21:19.501Z,69.40
2018-02-10T20:23:47.165Z,69.60
2018-02-10T20:26:14.852Z,69.60
2018-02-10T20:28:43.654Z,69.70
2018-02-10T20:31:11.903Z,70.10
2018-02-10T20:33:39.711Z,70.00
2018-02-10T20:36:08.139Z,70.00
2018-02-10T20:38:36.487Z,70.00
2018-02-10T20:41:05.199Z,70.30
2018-02-10T20:43:32.803Z,70.20
2018-02-10T20:46:00.695Z,70.30
2018-02-10T20:48:29.310Z,70.40
2018-02-10T20:50:57.033Z,70.20
2018-02-10T20:53:24.812Z,70.30
2018-02-10T20:55:52.718Z,70.40
2018-02-10T20:58:20.821Z,70.80
2018-02-10T21:00:48.454Z,71.00
2018-02-10T21:03:16.126Z,70.80
2018-02-10T21:05:44.087Z,71.10
2018-02-10T21:08:12.679Z,70.90
2018-02-10T21:10:40.662Z,71.20
2018-02-10T21:13:08.437Z,71.20
2018-02-10T21:15:36.381Z,71.30
2018-02-10T21:18:04.247Z,71.30
2018-02-10T21:20:32.102Z,71.30
2018-02-10T21:22:59.893Z,71.40
2018-02-10T21:25:27.965Z,71.40
2018-02-10T21:27:55.819Z,71.30
2018-02-10T21:30:23.936Z,71.70
2018-02-10T21:32:51.786Z,71.70
2018-02-10T21:35:19.492Z,71.80
2018-02-10T21:37:48.298Z,71.80
2018-02-10T21:40:16.173Z,71.70
2018-02-10T21:42:44.728Z,72.10
2018-02-10T21:45:12.551Z,72.10
2018-02-10T21:47:41.005Z,72.10
2018-02-10T21:50:08.962Z,72.10
2018-02-10T21:52:36.834Z,72.20
2018-02-10T21:55:05.443Z,72.90
2018-02-10T21:57:33.134Z,72.80
2018-02-10T22:00:00.963Z,73.20
2018-02-10T22:02:28.818Z,73.30
2018-02-10T22:04:57.548Z,74.10
2018-02-10T22:07:25.236Z,74.10
2018-02-10T22:09:53.096Z,75.00
2018-02-10T22:12:21.161Z,75.50
2018-02-10T22:14:49.087Z,76.40
2018-02-10T22:17:16.925Z,77.20
2018-02-10T22:19:44.785Z,78.70
2018-02-10T22:22:12.596Z,80.90
2018-02-10T22:24:40.489Z,81.80
2018-02-10T22:27:08.467Z,83.00
2018-02-10T22:29:36.334Z,83.60
2018-02-10T22:32:03.849Z,84.80
2018-02-10T22:34:32.120Z,86.00
2018-02-10T22:36:59.644Z,85.90
2018-02-10T22:39:27.264Z,86.60
2018-02-10T22:41:54.811Z,87.00
2018-02-10T22:44:22.317Z,87.50
2018-02-10T22:46:49.831Z,88.70
2018-02-10T22:49:18.131Z,89.50
2018-02-10T22:51:45.636Z,89.40
2018-02-10T22:54:13.168Z,90.10
2018-02-10T22:56:40.669Z,90.30
2018-02-10T22:59:08.194Z,90.70
2018-02-10T23:01:35.750Z,90.80
2018-02-10T23:04:03.277Z,91.00
2018-02-10T23:06:30.795Z,91.20
2018-02-10T23:08:58.394Z,91.30
2018-02-10T23:11:25.897Z,91.50
2018-02-10T23:13:53.441Z,91.50
2018-02-10T23:16:20.924Z,91.80
2018-02-10T23:18:48.426Z,91.70
2018-02-10T23:21:15.956Z,91.80
2018-02-10T23:23:43.462Z,92.00
2018-02-10T23:26:10.966Z,92.00
2018-02-10T23:28:38.483Z,92.00
2018-02-10T23:31:06.770Z,92.20
2018-02-10T23:33:34.381Z,92.60
2018-02-10T23:36:01.878Z,92.30
2018-02-10T23:38:29.449Z,92.30
2018-02-10T23:40:56.956Z,92.20
2018-02-10T23:43:24.483Z,92.30
2018-02-10T23:45:52.024Z,92.30
2018-02-10T23:48:19.538Z,92.20
2018-02-10T23:50:47.054Z,92.30
2018-02-10T23:53:14.645Z,92.30
2018-02-10T23:55:42.169Z,92.30
2018-02-10T23:58:09.704Z,92.40
